地図

経路データ

SID SEASON NUMBER BASIN SUBBASIN NAME ISO_TIME NATURE LAT LON WMO_WIND WMO_PRES WMO_AGENCY TRACK_TYPE DIST2LAND LANDFALL IFLAG USA_AGENCY USA_ATCF_ID USA_LAT USA_LON USA_RECORD USA_STATUS USA_WIND USA_PRES USA_SSHS USA_R34_NE USA_R34_SE USA_R34_SW USA_R34_NW USA_R50_NE USA_R50_SE USA_R50_SW USA_R50_NW USA_R64_NE USA_R64_SE USA_R64_SW USA_R64_NW USA_POCI USA_ROCI USA_RMW USA_EYE TOKYO_LAT TOKYO_LON TOKYO_GRADE TOKYO_WIND TOKYO_PRES TOKYO_R50_DIR TOKYO_R50_LONG TOKYO_R50_SHORT TOKYO_R30_DIR TOKYO_R30_LONG TOKYO_R30_SHORT TOKYO_LAND CMA_LAT CMA_LON CMA_CAT CMA_WIND CMA_PRES HKO_LAT HKO_LON HKO_CAT HKO_WIND HKO_PRES NEWDELHI_LAT NEWDELHI_LON NEWDELHI_GRADE NEWDELHI_WIND NEWDELHI_PRES NEWDELHI_CI NEWDELHI_DP NEWDELHI_POCI REUNION_LAT REUNION_LON REUNION_TYPE REUNION_WIND REUNION_PRES REUNION_TNUM REUNION_CI REUNION_RMW REUNION_R34_NE REUNION_R34_SE REUNION_R34_SW REUNION_R34_NW REUNION_R50_NE REUNION_R50_SE REUNION_R50_SW REUNION_R50_NW REUNION_R64_NE REUNION_R64_SE REUNION_R64_SW REUNION_R64_NW BOM_LAT BOM_LON BOM_TYPE BOM_WIND BOM_PRES BOM_TNUM BOM_CI BOM_RMW BOM_R34_NE BOM_R34_SE BOM_R34_SW BOM_R34_NW BOM_R50_NE BOM_R50_SE BOM_R50_SW BOM_R50_NW BOM_R64_NE BOM_R64_SE BOM_R64_SW BOM_R64_NW BOM_ROCI BOM_POCI BOM_EYE BOM_POS_METHOD BOM_PRES_METHOD NADI_LAT NADI_LON NADI_CAT NADI_WIND NADI_PRES WELLINGTON_LAT WELLINGTON_LON WELLINGTON_WIND WELLINGTON_PRES DS824_LAT DS824_LON DS824_STAGE DS824_WIND DS824_PRES TD9636_LAT TD9636_LON TD9636_STAGE TD9636_WIND TD9636_PRES TD9635_LAT TD9635_LON TD9635_WIND TD9635_PRES TD9635_ROCI NEUMANN_LAT NEUMANN_LON NEUMANN_CLASS NEUMANN_WIND NEUMANN_PRES MLC_LAT MLC_LON MLC_CLASS MLC_WIND MLC_PRES USA_GUST BOM_GUST BOM_GUST_PER REUNION_GUST REUNION_GUST_PER USA_SEAHGT USA_SEARAD_NE USA_SEARAD_SE USA_SEARAD_SW USA_SEARAD_NW STORM_SPEED STORM_DIR
1964321N14086 1964 110 NI BB NOT_NAMED 1964-11-16 06:00:00 TS 13.6000 85.6000 main 488 465 O________O____ jtwc_io IO141964 13.6000 85.6000 -1 13.6000 85.6000 TC 6 270
1964321N14086 1964 110 NI BB NOT_NAMED 1964-11-16 09:00:00 TS 13.6001 85.2825 main 465 443 P________P____ IO141964 13.6001 85.2825 -1 13.6001 85.2825 TC 6 270
1964321N14086 1964 110 NI BB NOT_NAMED 1964-11-16 12:00:00 TS 13.6000 85.0000 main 443 429 O________O____ jtwc_io IO141964 13.6000 85.0000 -1 13.6000 85.0000 TC 25 5 270
1964321N14086 1964 110 NI BB NOT_NAMED 1964-11-16 15:00:00 TS 13.6000 84.7800 main 429 416 P________PO___ IO141964 13.6000 84.7775 -1 13.6000 84.7775 TC 25 13.6000 84.8000 1 4 270
1964321N14086 1964 110 NI BB NOT_NAMED 1964-11-16 18:00:00 TS 13.6000 84.6062 main 416 410 O________OP___ jtwc_io IO141964 13.6000 84.6000 -1 13.6000 84.6000 TC 25 13.6001 84.6312 1 3 270
1964321N14086 1964 110 NI BB NOT_NAMED 1964-11-16 21:00:00 TS 13.6000 84.4527 main 410 398 P________PP___ IO141964 13.6000 84.4500 -1 13.6000 84.4500 TC 25 13.6001 84.4600 1 3 270
1964321N14086 1964 110 NI BB NOT_NAMED 1964-11-17 00:00:00 TS 13.6000 84.2946 main 398 387 O________OP___ jtwc_io IO141964 13.6000 84.3000 -1 13.6000 84.3000 TC 25 13.6000 84.2837 1 3 270
1964321N14086 1964 110 NI BB NOT_NAMED 1964-11-17 03:00:00 TS 13.6000 84.1050 main 387 377 P________PO___ IO141964 13.6000 84.1075 -1 13.6000 84.1075 TC 25 13.6000 84.1000 1 4 270
1964321N14086 1964 110 NI BB NOT_NAMED 1964-11-17 06:00:00 TS 13.6000 83.9024 main 377 367 O________OP___ jtwc_io IO141964 13.6000 83.9000 -1 13.6000 83.9000 TC 25 13.6000 83.9072 1 4 270
1964321N14086 1964 110 NI BB NOT_NAMED 1964-11-17 09:00:00 TS 13.6000 83.7025 main 367 346 P________PP___ IO141964 13.6000 83.7000 -1 13.6000 83.7000 TC 25 13.6000 83.7075 1 4 270
1964321N14086 1964 110 NI BB NOT_NAMED 1964-11-17 12:00:00 TS 13.6000 83.5014 main 346 324 O________OP___ jtwc_io IO141964 13.6000 83.5000 -1 13.6000 83.5000 TC 25 13.6000 83.5041 1 4 270
1964321N14086 1964 110 NI BB NOT_NAMED 1964-11-17 15:00:00 TS 13.6000 83.3000 main 324 302 P________PO___ IO141964 13.6000 83.3000 -1 13.6000 83.3000 TC 25 13.6000 83.3000 1 4 271
1964321N14086 1964 110 NI BB NOT_NAMED 1964-11-17 18:00:00 TS 13.6054 83.1000 main 302 281 O________OP___ jtwc_io IO141964 13.6000 83.1000 -1 13.6000 83.1000 TC 25 13.6162 83.1001 1 4 271
1964321N14086 1964 110 NI BB NOT_NAMED 1964-11-17 21:00:00 TS 13.6100 82.9000 main 281 259 P________PP___ IO141964 13.6000 82.9000 -1 13.6000 82.9000 TC 30 13.6299 82.9002 1 4 271
1964321N14086 1964 110 NI BB NOT_NAMED 1964-11-18 00:00:00 TS 13.6096 82.7000 main 259 237 O________OP___ jtwc_io IO141964 13.6000 82.7000 -1 13.6000 82.7000 TC 35 13.6287 82.7001 1 4 271
1964321N14086 1964 110 NI BB NOT_NAMED 1964-11-18 03:00:00 TS 13.6150 82.5000 main 237 216 P________PO___ IO141964 13.6225 82.5001 -1 13.6225 82.5001 TC 35 13.6000 82.5000 2 4 265
1964321N14086 1964 110 NI BB NOT_NAMED 1964-11-18 06:00:00 TS 13.5749 82.2973 main 216 194 O________OP___ jtwc_io IO141964 13.6000 82.3000 -1 13.6000 82.3000 TC 35 13.5247 82.2918 2 4 247
1964321N14086 1964 110 NI BB NOT_NAMED 1964-11-18 09:00:00 TS 13.4508 82.0949 main 194 173 P________PP___ IO141964 13.4650 82.1000 -1 13.4650 82.1000 TC 35 13.4225 82.0848 2 5 235
1964321N14086 1964 110 NI BB NOT_NAMED 1964-11-18 12:00:00 TS 13.3030 81.8952 main 173 152 O________OP___ jtwc_io IO141964 13.3000 81.9000 -1 13.3000 81.9000 TC 35 13.3091 81.8855 2 5 236
1964321N14086 1964 110 NI BB NOT_NAMED 1964-11-18 15:00:00 TS 13.1900 81.6950 main 152 131 P________PO___ IO141964 13.1850 81.6925 -1 13.1850 81.6925 TC 35 13.2000 81.7000 3 4 242
1964321N14086 1964 110 NI BB NOT_NAMED 1964-11-18 18:00:00 TS 13.1046 81.5092 main 131 121 O________OP___ jtwc_io IO141964 13.1000 81.5000 -1 13.1000 81.5000 TC 35 13.1137 81.5275 3 4 247
1964321N14086 1964 110 NI BB NOT_NAMED 1964-11-18 21:00:00 TS 13.0450 81.3467 main 113 103 P________PP___ IO141964 13.0500 81.3350 -1 13.0500 81.3350 TC 50 13.0350 81.3701 3 3 248
1964321N14086 1964 110 NI BB NOT_NAMED 1964-11-19 00:00:00 TS 12.9879 81.2092 main 103 97 O________OP___ jtwc_io IO141964 13.0000 81.2000 -1 13.0000 81.2000 TC 65 12.9637 81.2275 3 3 238
1964321N14086 1964 110 NI BB NOT_NAMED 1964-11-19 03:00:00 TS 12.8950 81.0950 main 97 86 P________PO___ IO141964 12.8925 81.0925 -1 12.8925 81.0925 TC 65 12.9000 81.1000 4 3 231
1964321N14086 1964 110 NI BB NOT_NAMED 1964-11-19 06:00:00 TS 12.8170 80.9912 main 86 75 O________OP___ jtwc_io IO141964 12.8000 81.0000 -1 12.8000 81.0000 TC 65 12.8509 80.9735 4 2 245
1964321N14086 1964 110 NI BB NOT_NAMED 1964-11-19 09:00:00 TS 12.8025 80.8875 main 75 65 P________PP___ IO141964 12.8000 80.9000 -1 12.8000 80.9000 TC 65 12.8075 80.8625 4 2 261
1964321N14086 1964 110 NI BB NOT_NAMED 1964-11-19 12:00:00 TS 12.7868 80.7901 main 65 54 O________OP___ jtwc_io IO141964 12.8000 80.8000 -1 12.8000 80.8000 TC 65 12.7603 80.7703 4 2 244
1964321N14086 1964 110 NI BB NOT_NAMED 1964-11-19 15:00:00 TS 12.7100 80.6900 main 54 43 P________PO___ IO141964 12.7150 80.6850 -1 12.7150 80.6850 TC 65 12.7000 80.7000 4 3 224
1964321N14086 1964 110 NI BB NOT_NAMED 1964-11-19 18:00:00 TS 12.5994 80.6056 main 43 43 O________OP___ jtwc_io IO141964 12.6000 80.6000 -1 12.6000 80.6000 TC 65 12.5981 80.6168 4 3 208
1964321N14086 1964 110 NI BB NOT_NAMED 1964-11-19 21:00:00 TS 12.4900 80.5717 main 43 43 P________PP___ IO141964 12.4925 80.5775 -1 12.4925 80.5775 TC 65 12.4849 80.5600 4 2 0
1964321N14086 1964 110 NI BB NOT_NAMED 1964-11-20 00:00:00 TS 12.3931 80.5827 main 44 44 O________OP___ jtwc_io IO141964 12.4000 80.6000 -1 12.4000 80.6000 TC 65 12.3793 80.5481 4 2 165
1964321N14086 1964 110 NI BB NOT_NAMED 1964-11-20 03:00:00 TS 12.3233 80.6083 main 48 48 P________PO___ IO141964 12.3350 80.6125 -1 12.3350 80.6125 TC 50 12.3000 80.6000 4 2 128
1964321N14086 1964 110 NI BB NOT_NAMED 1964-11-20 06:00:00 TS 12.2891 80.7158 main 58 58 O________OP___ jtwc_io IO141964 12.3000 80.7000 -1 12.3000 80.7000 TC 35 12.2673 80.7475 4 3 98
1964321N14086 1964 110 NI BB NOT_NAMED 1964-11-20 09:00:00 TS 12.2776 80.9417 main 79 79 P________PP___ IO141964 12.2851 80.9350 -1 12.2851 80.9350 TC 35 12.2627 80.9550 4 5 90
1964321N14086 1964 110 NI BB NOT_NAMED 1964-11-20 12:00:00 TS 12.2922 81.1950 main 110 110 O________OP___ jtwc_io IO141964 12.3000 81.2000 -1 12.3000 81.2000 TC 35 12.2767 81.1850 4 4 83
1964321N14086 1964 110 NI BB NOT_NAMED 1964-11-20 15:00:00 TS 12.3283 81.3817 main 132 130 P________PO___ IO141964 12.3425 81.3725 -1 12.3425 81.3725 TC 35 12.3000 81.4000 2 3 73
1964321N14086 1964 110 NI BB NOT_NAMED 1964-11-20 18:00:00 TS 12.3875 81.5128 main 141 141 O________OP___ jtwc_io IO141964 12.4000 81.5000 -1 12.4000 81.5000 TC 35 12.3624 81.5383 2 3 59
1964321N14086 1964 110 NI BB NOT_NAMED 1964-11-20 21:00:00 TS 12.4616 81.6140 main 152 152 P________PP___ IO141964 12.4800 81.5925 -1 12.4800 81.5925 TC 35 12.4248 81.6572 2 2 65
1964321N14086 1964 110 NI BB NOT_NAMED 1964-11-21 00:00:00 TS 12.4833 81.7242 main 162 162 O________OP___ jtwc_io IO141964 12.5000 81.7000 -1 12.5000 81.7000 TC 35 12.4499 81.7726 2 3 103
1964321N14086 1964 110 NI BB NOT_NAMED 1964-11-21 03:00:00 TS 12.3967 81.8950 main 185 185 P________PO___ IO141964 12.3950 81.8925 -1 12.3950 81.8925 TC 35 12.4000 81.9000 3 4 128
1964321N14086 1964 110 NI BB NOT_NAMED 1964-11-21 06:00:00 TS 12.2097 82.0869 main 209 209 O________OP___ jtwc_io IO141964 12.2000 82.1000 -1 12.2000 82.1000 TC 35 12.2291 82.0608 3 5 141
1964321N14086 1964 110 NI BB NOT_NAMED 1964-11-21 09:00:00 TS 11.9708 82.2451 main 224 224 P________PP___ IO141964 11.9650 82.2500 -1 11.9650 82.2500 TC 35 11.9825 82.2352 3 6 149
1964321N14086 1964 110 NI BB NOT_NAMED 1964-11-21 12:00:00 TS 11.6982 82.4057 main 255 255 O________OP___ jtwc_io IO141964 11.7000 82.4000 -1 11.7000 82.4000 TC 35 11.6947 82.4170 3 6 147
1964321N14086 1964 110 NI BB NOT_NAMED 1964-11-21 15:00:00 TS 11.4333 82.6000 main 288 288 P________PO___ IO141964 11.4500 82.6000 -1 11.4500 82.6000 TC 35 11.4000 82.6000 3 7 144
1964321N14086 1964 110 NI BB NOT_NAMED 1964-11-21 18:00:00 TS 11.1739 82.7958 main 305 291 O________OP___ jtwc_io IO141964 11.2000 82.8000 -1 11.2000 82.8000 TC 35 11.1216 82.7872 3 6 145
1964321N14086 1964 110 NI BB NOT_NAMED 1964-11-21 21:00:00 TS 10.9158 82.9625 main 300 293 P________PP___ IO141964 10.9500 82.9575 -1 10.9500 82.9575 TC 35 10.8475 82.9726 3 6 148
1964321N14086 1964 110 NI BB NOT_NAMED 1964-11-22 00:00:00 TS 10.6666 83.1155 main 296 291 O________OP___ jtwc_io IO141964 10.7000 83.1000 -1 10.7000 83.1000 TC 35 10.5997 83.1466 3 6 149
1964321N14086 1964 110 NI BB NOT_NAMED 1964-11-22 03:00:00 TS 10.4133 83.2717 main 298 291 P________PO___ IO141964 10.4200 83.2575 -1 10.4200 83.2575 TC 35 10.4000 83.3000 3 5 147
1964321N14086 1964 110 NI BB NOT_NAMED 1964-11-22 06:00:00 TS 10.2222 83.4085 main 294 294 O________OP___ jtwc_io IO141964 10.2000 83.4000 -1 10.2000 83.4000 TC 35 10.2665 83.4255 3 4 139
1964321N14086 1964 110 NI BB NOT_NAMED 1964-11-22 09:00:00 TS 10.1408 83.5149 main 297 297 P________PP___ IO141964 10.1200 83.5075 -1 10.1200 83.5075 TC 35 10.1825 83.5298 3 2 120
1964321N14086 1964 110 NI BB NOT_NAMED 1964-11-22 12:00:00 TS 10.1107 83.6064 main 306 306 O________OP___ jtwc_io IO141964 10.1000 83.6000 -1 10.1000 83.6000 TC 35 10.1322 83.6193 3 2 113
1964321N14086 1964 110 NI BB NOT_NAMED 1964-11-22 15:00:00 TS 10.0617 83.7050 main 316 309 P________PO___ IO141964 10.0425 83.7075 -1 10.0425 83.7075 TC 35 10.1000 83.7000 3 2 118
1964321N14086 1964 110 NI BB NOT_NAMED 1964-11-22 18:00:00 TS 10.0134 83.7927 main 318 318 O________OP___ jtwc_io IO141964 10.0000 83.8000 -1 10.0000 83.8000 TC 35 10.0403 83.7781 3 2 117
1964321N14086 1964 110 NI BB NOT_NAMED 1964-11-22 21:00:00 TS 9.98915 83.8500 main 327 327 P________PP___ IO141964 9.98499 83.8500 -1 9.98499 83.8500 TC 30 9.99747 83.8500 3 1 100
1964321N14086 1964 110 NI BB NOT_NAMED 1964-11-23 00:00:00 TS 9.99364 83.9073 main 327 327 O________OP___ jtwc_io IO141964 10.0000 83.9000 -1 10.0000 83.9000 TC 25 9.98092 83.9219 3 1 77
1964321N14086 1964 110 NI BB NOT_NAMED 1964-11-23 03:00:00 TS 10.0233 83.9950 main 337 337 P________PO___ IO141964 10.0350 83.9925 -1 10.0350 83.9925 TC 25 10.0000 84.0000 1 2 64
1964321N14086 1964 110 NI BB NOT_NAMED 1964-11-23 06:00:00 TS 10.0867 84.1003 main 352 352 O________OP___ jtwc_io IO141964 10.1000 84.1000 -1 10.1000 84.1000 TC 25 10.0600 84.1009 1 3 53
1964321N14086 1964 110 NI BB NOT_NAMED 1964-11-23 09:00:00 TS 10.1800 84.2075 main 367 367 P________PP___ IO141964 10.1925 84.2075 -1 10.1925 84.2075 TC 25 10.1550 84.2074 1 3 45
1964321N14086 1964 110 NI BB NOT_NAMED 1964-11-23 12:00:00 TS 10.2908 84.3034 main 383 383 O________OP___ jtwc_io IO141964 10.3000 84.3000 -1 10.3000 84.3000 TC 25 10.2725 84.3103 1 3 38
1964321N14086 1964 110 NI BB NOT_NAMED 1964-11-23 15:00:00 TS 10.3950 84.3717 main 398 398 P________PO___ IO141964 10.3925 84.3575 -1 10.3925 84.3575 TC 25 10.4000 84.4000 1 2 29
1964321N14086 1964 110 NI BB NOT_NAMED 1964-11-23 18:00:00 TS 10.5019 84.4215 main 404 404 O________OP___ jtwc_io IO141964 10.5000 84.4000 -1 10.5000 84.4000 TC 25 10.5056 84.4644 1 3 22
1964321N14086 1964 110 NI BB NOT_NAMED 1964-11-23 21:00:00 TS 10.6350 84.4717 main 419 419 P________PP___ IO141964 10.6425 84.4500 -1 10.6425 84.4500 TC 25 10.6200 84.5151 1 3 20
1964321N14086 1964 110 NI BB NOT_NAMED 1964-11-24 00:00:00 TS 10.7831 84.5194 main 431 431 O________OP___ jtwc_io IO141964 10.8000 84.5000 -1 10.8000 84.5000 TC 25 10.7494 84.5582 1 3 18
1964321N14086 1964 110 NI BB NOT_NAMED 1964-11-24 03:00:00 TS 10.9283 84.5667 main 446 446 P________PO___ IO141964 10.9425 84.5500 -1 10.9425 84.5500 TC 25 10.9000 84.6000 1 3 18
1964321N14086 1964 110 NI BB NOT_NAMED 1964-11-24 06:00:00 TS 11.0915 84.6153 main 459 459 O________OP___ jtwc_io IO141964 11.1000 84.6000 -1 11.1000 84.6000 TC 25 11.0744 84.6460 1 4 14
1964321N14086 1964 110 NI BB NOT_NAMED 1964-11-24 09:00:00 TS 11.2850 84.6592 main 481 481 P________PP___ IO141964 11.2925 84.6425 -1 11.2925 84.6425 TC 25 11.2700 84.6926 1 4 13
1964321N14086 1964 110 NI BB NOT_NAMED 1964-11-24 12:00:00 TS 11.4935 84.7143 main 492 492 O________OP___ jtwc_io IO141964 11.5000 84.7000 -1 11.5000 84.7000 TC 25 11.4806 84.7429 1 4 18
1964321N14086 1964 110 NI BB NOT_NAMED 1964-11-24 15:00:00 TS 11.6950 84.8000 main 508 506 P________PO___ IO141964 11.6925 84.8000 -1 11.6925 84.8000 TC 25 11.7000 84.8000 1 4 22
1964321N14086 1964 110 NI BB NOT_NAMED 1964-11-24 18:00:00 TS 11.9059 84.8839 main 515 512 O________OP___ jtwc_io IO141964 11.9000 84.9000 -1 11.9000 84.9000 TC 25 11.9178 84.8517 1 5 17
1964321N14086 1964 110 NI BB NOT_NAMED 1964-11-24 21:00:00 TS 12.1475 84.9376 main 512 511 P________PP___ IO141964 12.1500 84.9500 -1 12.1500 84.9500 TC 25 12.1424 84.9127 1 5 13
1964321N14086 1964 110 NI BB NOT_NAMED 1964-11-25 00:00:00 TS 12.3903 84.9974 main 519 517 O________OP___ jtwc_io IO141964 12.4000 85.0000 -1 12.4000 85.0000 TC 25 12.3709 84.9923 1 5 18
1964321N14086 1964 110 NI BB NOT_NAMED 1964-11-25 03:00:00 TS 12.6000 85.0850 main 526 524 P________PO___ IO141964 12.6000 85.0776 -1 12.6000 85.0776 TC 25 12.6000 85.1000 1 5 25
1964321N14086 1964 110 NI BB NOT_NAMED 1964-11-25 06:00:00 TS 12.8205 85.2086 main 527 514 O________OP___ jtwc_io IO141964 12.8000 85.2000 -1 12.8000 85.2000 TC 25 12.8615 85.2258 1 6 31
1964321N14086 1964 110 NI BB NOT_NAMED 1964-11-25 09:00:00 TS 13.0774 85.3791 main 514 504 P________PP___ IO141964 13.0575 85.3775 -1 13.0575 85.3775 TC 25 13.1173 85.3822 1 6 37
1964321N14086 1964 110 NI BB NOT_NAMED 1964-11-25 12:00:00 TS 13.3132 85.5909 main 512 503 O________OP___ jtwc_io IO141964 13.3000 85.6000 -1 13.3000 85.6000 TC 25 13.3396 85.5726 1 6 46
1964321N14086 1964 110 NI BB NOT_NAMED 1964-11-25 15:00:00 TS 13.4966 85.8233 main 511 511 P________PO___ IO141964 13.4950 85.8350 -1 13.4950 85.8350 TC 25 13.5000 85.8000 1 6 60
1964321N14086 1964 110 NI BB NOT_NAMED 1964-11-25 18:00:00 TS 13.5882 86.0868 main 528 528 O________OP___ jtwc_io IO141964 13.6000 86.1000 -1 13.6000 86.1000 TC 25 13.5647 86.0603 1 5 82
1964321N14086 1964 110 NI BB NOT_NAMED 1964-11-25 21:00:00 TS 13.5708 86.3802 main 553 553 P________PP___ IO141964 13.5725 86.3926 -1 13.5725 86.3926 TC 25 13.5675 86.3554 1 6 97
1964321N14086 1964 110 NI BB NOT_NAMED 1964-11-26 00:00:00 TS 13.5122 86.6909 main 586 586 O________OP___ jtwc_io IO141964 13.5000 86.7000 -1 13.5000 86.7000 TC 25 13.5366 86.6727 1 6 97
1964321N14086 1964 110 NI BB NOT_NAMED 1964-11-26 03:00:00 TS 13.4950 86.9950 main 612 612 P________PO___ IO141964 13.4924 86.9925 -1 13.4924 86.9925 TC 25 13.5000 87.0000 1 6 91
1964321N14086 1964 110 NI BB NOT_NAMED 1964-11-26 06:00:00 TS 13.4986 87.3087 main 635 635 O________OP___ jtwc_io IO141964 13.5000 87.3000 -1 13.5000 87.3000 TC 25 13.4959 87.3260 1 6 90
1964321N14086 1964 110 NI BB NOT_NAMED 1964-11-26 09:00:00 TS 13.4975 87.6525 main 660 660 P________PP___ IO141964 13.5000 87.6500 -1 13.5000 87.6500 TC 25 13.4925 87.6576 1 7 90
1964321N14086 1964 110 NI BB NOT_NAMED 1964-11-26 12:00:00 TS 13.4976 87.9951 main 680 680 O________OP___ jtwc_io IO141964 13.5000 88.0000 -1 13.5000 88.0000 TC 25 13.4928 87.9854 1 6 90
1964321N14086 1964 110 NI BB NOT_NAMED 1964-11-26 15:00:00 TS 13.4950 88.3100 main 693 664 P________PO___ IO141964 13.4925 88.3150 -1 13.4925 88.3150 TC 25 13.5000 88.3000 1 6 89
1964321N14086 1964 110 NI BB NOT_NAMED 1964-11-26 18:00:00 TS 13.5084 88.5815 main 664 644 O________OP___ jtwc_io IO141964 13.5000 88.6000 -1 13.5000 88.6000 TC 25 13.5253 88.5446 1 5 83
1964321N14086 1964 110 NI BB NOT_NAMED 1964-11-26 21:00:00 TS 13.5521 88.8175 main 639 610 P________PP___ IO141964 13.5499 88.8350 -1 13.5499 88.8350 TC 25 13.5565 88.7824 1 5 80
1964321N14086 1964 110 NI BB NOT_NAMED 1964-11-27 00:00:00 TS 13.5948 89.0847 main 610 581 O________OP___ jtwc_io IO141964 13.6000 89.1000 -1 13.6000 89.1000 TC 25 13.5845 89.0540 1 6 85
1964321N14086 1964 110 NI BB NOT_NAMED 1964-11-27 03:00:00 TS 13.6099 89.4367 main 581 534 P________PO___ IO141964 13.6149 89.4550 -1 13.6149 89.4550 TC 25 13.6000 89.4000 1 8 90
1964321N14086 1964 110 NI BB NOT_NAMED 1964-11-27 06:00:00 TS 13.5952 89.8877 main 534 489 O________OP___ jtwc_io IO141964 13.6000 89.9000 -1 13.6000 89.9000 TC 25 13.5855 89.8630 1 10 93
1964321N14086 1964 110 NI BB NOT_NAMED 1964-11-27 09:00:00 TS 13.5525 90.4144 main 489 443 P________PP___ IO141964 13.5500 90.4201 -1 13.5500 90.4201 TC 25 13.5577 90.4029 1 11 95
1964321N14086 1964 110 NI BB NOT_NAMED 1964-11-27 12:00:00 TS 13.5087 90.9971 main 443 395 O________OP___ jtwc_io IO141964 13.5000 91.0000 -1 13.5000 91.0000 TC 25 13.5260 90.9912 1 12 93
1964321N14086 1964 110 NI BB NOT_NAMED 1964-11-27 15:00:00 TS 13.4949 91.5950 main 395 349 P________PO___ IO141964 13.4924 91.5925 -1 13.4924 91.5925 TC 25 13.5000 91.6000 1 12 91
1964321N14086 1964 110 NI BB NOT_NAMED 1964-11-27 18:00:00 TS 13.4975 92.1952 main 349 309 O________OP___ jtwc_io IO141964 13.5000 92.2000 -1 13.5000 92.2000 TC 25 13.4925 92.1855 1 12 90
1964321N14086 1964 110 NI BB NOT_NAMED 1964-11-27 21:00:00 TS 13.4973 92.7950 main 309 279 P________PP___ IO141964 13.4999 92.8000 -1 13.4999 92.8000 TC 25 13.4921 92.7849 1 12 90
1964321N14086 1964 110 NI BB NOT_NAMED 1964-11-28 00:00:00 TS 13.4985 93.3973 main 279 261 O________OP___ jtwc_io IO141964 13.5000 93.4000 -1 13.5000 93.4000 TC 25 13.4956 93.3918 1 12 90
1964321N14086 1964 110 NI BB NOT_NAMED 1964-11-28 03:00:00 TS 13.4999 94.0000 main 261 250 P________PO___ IO141964 13.4999 94.0000 -1 13.4999 94.0000 TC 25 13.5000 94.0000 1 12 90
1964321N14086 1964 110 NI BB NOT_NAMED 1964-11-28 06:00:00 TS 13.5011 94.6018 main 250 246 O________OP___ jtwc_io IO141964 13.5000 94.6000 -1 13.5000 94.6000 TC 25 13.5027 94.6044 1 12 90
1964321N14086 1964 110 NI BB NOT_NAMED 1964-11-28 09:00:00 TS 13.5017 95.2021 main 246 246 P________PP___ IO141964 13.5003 95.2000 -1 13.5003 95.2000 TC 25 13.5035 95.2050 1 12 90
1964321N14086 1964 110 NI BB NOT_NAMED 1964-11-28 12:00:00 TS 13.5013 95.8016 main 248 184 O________OP___ jtwc_io IO141964 13.5000 95.8000 -1 13.5000 95.8000 TC 25 13.5026 95.8031 1 12 90
1964321N14086 1964 110 NI BB NOT_NAMED 1964-11-28 15:00:00 NR 13.5000 96.4000 main 184 __________O___ IO141964 -1 TC 13.5000 96.4000 1 12 90

IBTrACS Databaseについて

本データベースは、米国NOAAが公開する1842年以降の世界の熱帯低気圧のベストトラックデータアーカイブInternational Best Track Archive for Climate Stewardship (IBTrACS)を、ウェブで閲覧しやすい形式に変換したものです。

最終更新日:2021-11-26